createdAt,value
2018-09-20T04:30:05.252Z,8.87
2018-09-20T04:32:33.794Z,8.87
2018-09-20T04:35:02.338Z,9.50
2018-09-20T04:37:34.851Z,9.23
2018-09-20T04:40:05.239Z,8.70
2018-09-20T04:42:33.875Z,9.20
2018-09-20T04:45:02.880Z,9.33
2018-09-20T04:47:31.422Z,9.13
2018-09-20T04:49:59.958Z,8.67
2018-09-20T04:52:28.537Z,9.00
2018-09-20T04:54:57.181Z,8.93
2018-09-20T04:57:25.695Z,9.37
2018-09-20T04:59:54.296Z,9.37
2018-09-20T05:02:23.051Z,8.17
2018-09-20T05:04:51.585Z,9.03
2018-09-20T05:07:20.114Z,8.77
2018-09-20T05:09:48.662Z,8.60
2018-09-20T05:12:17.205Z,8.50
2018-09-20T05:14:45.742Z,8.80
2018-09-20T05:17:14.268Z,8.87
2018-09-20T05:19:42.856Z,8.80
2018-09-20T05:22:11.362Z,8.37
2018-09-20T05:24:39.902Z,9.00
2018-09-20T05:27:08.440Z,9.13
2018-09-20T05:29:36.972Z,8.50
2018-09-20T05:32:05.611Z,8.63
2018-09-20T05:34:34.128Z,9.13
2018-09-20T05:37:02.674Z,9.03
2018-09-20T05:39:31.197Z,8.90
2018-09-20T05:41:59.759Z,9.07
2018-09-20T05:44:28.318Z,8.63
2018-09-20T05:46:56.843Z,8.00
2018-09-20T05:49:25.386Z,8.73
2018-09-20T05:51:53.927Z,8.67
2018-09-20T05:54:22.481Z,8.10
2018-09-20T05:56:51.038Z,8.13
2018-09-20T05:59:19.627Z,9.77
2018-09-20T06:01:48.122Z,9.27
2018-09-20T06:04:16.627Z,9.83
2018-09-20T06:06:45.191Z,10.17
2018-09-20T06:09:13.859Z,9.27
2018-09-20T06:11:42.376Z,10.00
2018-09-20T06:14:10.858Z,10.17
2018-09-20T06:16:39.370Z,10.03
2018-09-20T06:19:09.215Z,10.37
2018-09-20T06:21:37.846Z,9.70
2018-09-20T06:24:07.403Z,9.87
2018-09-20T06:26:36.005Z,9.93
2018-09-20T06:29:04.554Z,10.20
2018-09-20T06:31:33.094Z,10.40
2018-09-20T06:34:01.610Z,11.00
2018-09-20T06:36:30.151Z,10.83
2018-09-20T06:38:58.664Z,10.63
2018-09-20T06:41:27.219Z,10.80
2018-09-20T06:43:55.777Z,10.43
2018-09-20T06:46:24.308Z,10.77
2018-09-20T06:48:52.861Z,10.17
2018-09-20T06:51:21.381Z,10.63
2018-09-20T06:53:49.915Z,10.43
2018-09-20T06:56:18.470Z,10.97
2018-09-20T06:58:46.973Z,10.40
2018-09-20T07:01:15.518Z,10.43
2018-09-20T07:03:44.087Z,10.47
2018-09-20T07:06:12.634Z,10.00
2018-09-20T07:08:41.190Z,10.27
2018-09-20T07:11:09.710Z,10.03
2018-09-20T07:13:38.270Z,9.70
2018-09-20T07:16:08.491Z,10.57
2018-09-20T07:18:37.288Z,10.97
2018-09-20T07:21:06.098Z,9.37
2018-09-20T07:23:36.637Z,9.53
2018-09-20T07:26:05.469Z,9.70
2018-09-20T07:28:33.983Z,9.53
2018-09-20T07:31:02.568Z,10.20
2018-09-20T07:33:33.813Z,9.60
2018-09-20T07:36:02.358Z,8.60
2018-09-20T07:38:30.890Z,8.50
2018-09-20T07:40:59.433Z,8.67
2018-09-20T07:43:28.048Z,9.00
2018-09-20T07:45:57.496Z,8.67
2018-09-20T07:48:26.790Z,7.77
2018-09-20T07:50:56.569Z,8.00
2018-09-20T07:53:25.208Z,7.40
2018-09-20T07:55:53.730Z,8.27
2018-09-20T07:58:23.958Z,8.07
2018-09-20T08:00:53.457Z,7.83
2018-09-20T08:03:22.514Z,7.80
2018-09-20T08:05:52.345Z,7.70
2018-09-20T08:08:22.193Z,7.90
2018-09-20T08:10:51.919Z,7.15
2018-09-20T08:13:21.903Z,7.40
2018-09-20T08:15:50.593Z,6.20
2018-09-20T08:18:21.072Z,6.97
2018-09-20T08:20:50.218Z,6.60
2018-09-20T08:23:18.818Z,6.93
2018-09-20T08:25:47.325Z,7.00
2018-09-20T08:28:15.903Z,6.63
2018-09-20T08:30:44.466Z,6.50
2018-09-20T08:33:13.081Z,6.65
2018-09-20T08:35:41.598Z,6.55
2018-09-20T08:38:10.966Z,6.47
2018-09-20T08:40:39.492Z,6.20
2018-09-20T08:43:09.080Z,6.37
2018-09-20T08:45:37.587Z,6.20
2018-09-20T08:48:06.463Z,6.60
2018-09-20T08:50:35.033Z,6.50
2018-09-20T08:53:04.320Z,6.25
2018-09-20T08:55:32.837Z,6.20
2018-09-20T08:58:01.377Z,6.60
2018-09-20T09:00:29.909Z,6.42
2018-09-20T09:02:58.467Z,6.55
2018-09-20T09:05:27.052Z,6.17
2018-09-20T09:07:55.618Z,5.75
2018-09-20T09:10:24.918Z,6.03
2018-09-20T09:12:54.246Z,5.83
2018-09-20T09:15:23.468Z,5.87
2018-09-20T09:17:52.885Z,5.92
2018-09-20T09:20:21.534Z,6.00
2018-09-20T09:22:51.369Z,5.67
2018-09-20T09:25:21.229Z,5.60
2018-09-20T09:27:50.499Z,5.97
2018-09-20T09:30:20.169Z,5.75
2018-09-20T09:32:49.454Z,5.65
2018-09-20T09:35:19.500Z,5.30
2018-09-20T09:37:48.120Z,4.60
2018-09-20T09:40:16.669Z,5.30
2018-09-20T09:42:46.801Z,5.20
2018-09-20T09:45:15.511Z,5.03
2018-09-20T09:47:44.098Z,5.42
2018-09-20T09:50:12.644Z,5.17
2018-09-20T09:52:42.773Z,5.40
2018-09-20T09:55:12.297Z,5.05
2018-09-20T09:57:41.087Z,4.78
2018-09-20T10:00:10.178Z,5.30
2018-09-20T10:02:39.036Z,4.75
2018-09-20T10:05:07.629Z,5.50
2018-09-20T10:07:36.151Z,4.83
2018-09-20T10:10:04.693Z,4.85
2018-09-20T10:12:33.194Z,5.00
2018-09-20T10:15:01.726Z,5.03
2018-09-20T10:17:30.227Z,5.30
2018-09-20T10:19:58.791Z,5.03
2018-09-20T10:22:27.278Z,4.78
2018-09-20T10:24:55.814Z,4.65
2018-09-20T10:27:24.303Z,5.05
2018-09-20T10:29:52.815Z,5.10
2018-09-20T10:32:21.332Z,5.05
2018-09-20T10:34:49.899Z,4.65
2018-09-20T10:37:18.567Z,4.92
2018-09-20T10:39:47.102Z,5.08
2018-09-20T10:42:15.607Z,4.58
2018-09-20T10:44:44.172Z,4.78
2018-09-20T10:47:12.712Z,4.70
2018-09-20T10:49:41.233Z,4.97
2018-09-20T10:52:09.751Z,5.10
2018-09-20T10:54:38.360Z,4.75
2018-09-20T10:57:06.891Z,4.60
2018-09-20T10:59:35.468Z,4.70
2018-09-20T11:02:04.018Z,4.40
2018-09-20T11:04:32.578Z,4.58
2018-09-20T11:07:01.120Z,4.20
2018-09-20T11:09:29.622Z,5.10
2018-09-20T11:11:58.177Z,4.50
2018-09-20T11:14:26.795Z,4.60
2018-09-20T11:16:55.327Z,4.20
2018-09-20T11:19:23.812Z,4.12
2018-09-20T11:21:52.346Z,4.30
2018-09-20T11:24:20.877Z,4.42
2018-09-20T11:26:49.438Z,4.70
2018-09-20T11:29:17.954Z,4.40
2018-09-20T11:31:46.525Z,4.70
2018-09-20T11:34:15.083Z,4.42
2018-09-20T11:36:43.608Z,4.60
2018-09-20T11:39:13.616Z,4.50
2018-09-20T11:41:42.178Z,4.40
2018-09-20T11:44:10.751Z,5.00
2018-09-20T11:46:39.395Z,4.70
2018-09-20T11:49:07.847Z,4.67
2018-09-20T11:51:37.035Z,4.42
2018-09-20T11:54:05.553Z,4.37
2018-09-20T11:56:34.093Z,4.62
2018-09-20T11:59:03.001Z,4.65
2018-09-20T12:01:31.587Z,4.30
2018-09-20T12:04:00.186Z,4.45
2018-09-20T12:06:28.745Z,4.25
2018-09-20T12:08:57.294Z,4.17
2018-09-20T12:11:26.320Z,4.67
2018-09-20T12:13:54.913Z,4.03
2018-09-20T12:16:23.521Z,4.67
2018-09-20T12:18:52.190Z,4.05
2018-09-20T12:21:20.858Z,4.60
2018-09-20T12:23:49.390Z,4.53
2018-09-20T12:26:17.930Z,4.25
2018-09-20T12:28:46.479Z,4.30
2018-09-20T12:31:15.059Z,4.53
2018-09-20T12:33:43.647Z,4.00
2018-09-20T12:36:12.223Z,4.12
2018-09-20T12:38:40.829Z,3.83
2018-09-20T12:41:09.322Z,4.28
2018-09-20T12:43:37.904Z,4.37
2018-09-20T12:46:06.454Z,4.00
2018-09-20T12:48:34.990Z,4.08
2018-09-20T12:51:03.486Z,3.62
2018-09-20T12:53:32.047Z,3.90
2018-09-20T12:56:00.579Z,3.80
2018-09-20T12:58:35.425Z,4.10
2018-09-20T13:01:04.045Z,4.00
2018-09-20T13:03:32.670Z,3.70
2018-09-20T13:06:01.635Z,4.10
2018-09-20T13:08:30.795Z,4.03
2018-09-20T13:10:59.977Z,4.03
2018-09-20T13:13:29.176Z,4.03
2018-09-20T13:15:58.094Z,3.98
2018-09-20T13:18:26.746Z,4.40
2018-09-20T13:20:55.751Z,4.15
2018-09-20T13:23:24.375Z,4.00
2018-09-20T13:25:53.398Z,3.98
2018-09-20T13:28:21.938Z,4.50
2018-09-20T13:30:50.520Z,4.15
2018-09-20T13:33:19.063Z,3.90
2018-09-20T13:35:48.245Z,4.60
2018-09-20T13:38:16.817Z,3.98
2018-09-20T13:40:45.419Z,4.00
2018-09-20T13:43:13.992Z,3.80
2018-09-20T13:45:42.555Z,4.30
2018-09-20T13:48:11.128Z,4.37
2018-09-20T13:50:39.683Z,4.10
2018-09-20T13:53:08.222Z,4.22
2018-09-20T13:55:36.798Z,4.20
2018-09-20T13:58:05.472Z,4.22
2018-09-20T14:00:34.024Z,4.40
2018-09-20T14:03:02.555Z,4.10
2018-09-20T14:05:31.124Z,3.98
2018-09-20T14:07:59.650Z,4.10
2018-09-20T14:10:28.199Z,4.42
2018-09-20T14:12:56.723Z,4.45
2018-09-20T14:15:25.349Z,4.85
2018-09-20T14:17:54.223Z,4.60
2018-09-20T14:20:24.422Z,4.45
2018-09-20T14:22:53.477Z,4.40
2018-09-20T14:25:28.995Z,4.60
2018-09-20T14:28:00.789Z,4.80
2018-09-20T14:30:29.605Z,4.65
2018-09-20T14:32:58.261Z,4.62
2018-09-20T14:35:27.071Z,4.37
2018-09-20T14:37:56.069Z,4.53
2018-09-20T14:40:25.223Z,4.60
2018-09-20T14:42:53.755Z,4.55
2018-09-20T14:45:22.886Z,4.75
2018-09-20T14:47:51.395Z,4.78
2018-09-20T14:50:21.445Z,4.72
2018-09-20T14:52:50.058Z,4.50
2018-09-20T14:55:18.684Z,4.97
2018-09-20T14:57:47.570Z,4.95
2018-09-20T15:00:16.470Z,5.00
2018-09-20T15:02:45.167Z,4.75
2018-09-20T15:05:14.004Z,4.67
2018-09-20T15:07:42.803Z,4.83
2018-09-20T15:10:11.700Z,4.75
2018-09-20T15:12:40.354Z,5.00
2018-09-20T15:15:09.047Z,4.83
2018-09-20T15:17:37.526Z,4.60
2018-09-20T15:20:07.074Z,4.58
2018-09-20T15:22:35.626Z,5.50
2018-09-20T15:25:05.551Z,4.92
2018-09-20T15:27:35.488Z,4.67
2018-09-20T15:30:04.209Z,4.60
2018-09-20T15:32:32.951Z,4.78
2018-09-20T15:35:02.107Z,4.85
2018-09-20T15:37:30.701Z,4.67
2018-09-20T15:40:00.123Z,4.58
2018-09-20T15:42:28.711Z,4.42
2018-09-20T15:45:04.737Z,4.53
2018-09-20T15:47:33.347Z,5.37
2018-09-20T15:50:02.538Z,4.70
2018-09-20T15:52:31.099Z,5.10
2018-09-20T15:54:59.727Z,4.78
2018-09-20T15:57:28.288Z,4.55
2018-09-20T15:59:57.032Z,4.62
2018-09-20T16:02:25.556Z,4.60
2018-09-20T16:04:54.062Z,4.55
2018-09-20T16:07:22.578Z,4.40
2018-09-20T16:09:51.062Z,4.60
2018-09-20T16:12:20.194Z,4.45
2018-09-20T16:14:48.736Z,4.65
2018-09-20T16:17:17.389Z,4.30
2018-09-20T16:19:45.921Z,4.53
2018-09-20T16:22:14.486Z,4.58
2018-09-20T16:24:43.018Z,5.20
2018-09-20T16:27:11.540Z,4.80
2018-09-20T16:30:02.947Z,4.70
2018-09-20T16:33:15.516Z,4.42
2018-09-20T16:35:53.037Z,4.85
2018-09-20T16:38:28.243Z,4.30
2018-09-20T16:41:00.714Z,4.58
2018-09-20T16:43:29.595Z,4.90
2018-09-20T16:45:58.352Z,4.58
2018-09-20T16:48:26.895Z,5.25
2018-09-20T16:50:55.491Z,4.42
2018-09-20T16:53:24.435Z,4.72
2018-09-20T16:55:52.883Z,4.70
2018-09-20T16:58:21.410Z,4.58
2018-09-20T17:00:50.800Z,4.45
2018-09-20T17:03:19.355Z,5.30
2018-09-20T17:05:48.157Z,4.72
2018-09-20T17:08:16.754Z,4.95
2018-09-20T17:10:45.318Z,5.03
2018-09-20T17:13:13.917Z,4.92
2018-09-20T17:15:42.475Z,5.37
2018-09-20T17:18:11.528Z,4.87
2018-09-20T17:20:40.410Z,4.92
2018-09-20T17:23:09.035Z,4.80
2018-09-20T17:25:37.933Z,5.08
2018-09-20T17:28:08.742Z,5.30
2018-09-20T17:30:37.269Z,5.50
2018-09-20T17:33:05.880Z,5.53
2018-09-20T17:35:36.388Z,5.00
2018-09-20T17:38:06.604Z,5.12
2018-09-20T17:40:36.335Z,5.00
2018-09-20T17:43:12.066Z,4.92
2018-09-20T17:45:40.668Z,4.95
2018-09-20T17:48:09.618Z,4.85
2018-09-20T17:50:38.786Z,5.10
2018-09-20T17:53:07.878Z,5.25
2018-09-20T17:55:36.959Z,5.30
2018-09-20T17:58:06.699Z,5.20
2018-09-20T18:00:35.286Z,4.45
2018-09-20T18:03:08.272Z,4.78
2018-09-20T18:05:37.416Z,5.05
2018-09-20T18:08:06.038Z,5.17
2018-09-20T18:10:34.568Z,5.00
2018-09-20T18:13:03.068Z,4.72
2018-09-20T18:16:02.452Z,5.17
2018-09-20T18:18:31.095Z,4.95
2018-09-20T18:20:59.715Z,4.65
2018-09-20T18:23:28.275Z,4.83
2018-09-20T18:25:57.022Z,4.67
2018-09-20T18:28:25.738Z,5.62
2018-09-20T18:30:54.428Z,5.42
2018-09-20T18:33:22.956Z,5.20
2018-09-20T18:35:51.586Z,5.65
2018-09-20T18:38:20.216Z,5.22
2018-09-20T18:40:48.838Z,5.33
2018-09-20T18:43:17.675Z,4.65
2018-09-20T18:45:46.230Z,5.28
2018-09-20T18:48:14.748Z,5.30
2018-09-20T18:50:43.373Z,5.20
2018-09-20T18:53:11.979Z,5.30
2018-09-20T18:55:40.547Z,5.22
2018-09-20T18:58:09.066Z,5.60
2018-09-20T19:00:37.878Z,6.20
2018-09-20T19:03:06.838Z,5.67
2018-09-20T19:05:35.410Z,5.20
2018-09-20T19:08:04.071Z,4.92
2018-09-20T19:10:32.659Z,5.20
2018-09-20T19:13:02.074Z,5.60
2018-09-20T19:15:30.676Z,5.55
2018-09-20T19:17:59.181Z,5.50
2018-09-20T19:20:27.726Z,5.60
2018-09-20T19:22:56.256Z,5.58
2018-09-20T19:25:25.445Z,5.60
2018-09-20T19:27:53.964Z,5.62
2018-09-20T19:30:23.812Z,5.85
2018-09-20T19:32:58.631Z,6.28
2018-09-20T19:35:28.921Z,5.67
2018-09-20T19:37:59.253Z,6.03
2018-09-20T19:40:29.635Z,5.97
2018-09-20T19:42:58.198Z,5.40
2018-09-20T19:45:27.539Z,5.72
2018-09-20T19:47:56.545Z,5.90
2018-09-20T19:50:26.947Z,5.90
2018-09-20T19:52:56.063Z,6.20
2018-09-20T19:55:24.839Z,6.75
2018-09-20T19:57:54.933Z,6.83
2018-09-20T20:00:23.806Z,7.05
2018-09-20T20:02:52.346Z,7.30
2018-09-20T20:05:20.867Z,6.85
2018-09-20T20:07:49.418Z,8.13
2018-09-20T20:10:17.914Z,8.00
2018-09-20T20:12:46.425Z,9.98
2018-09-20T20:15:14.919Z,9.63
2018-09-20T20:17:43.426Z,10.15
2018-09-20T20:20:11.932Z,8.43
2018-09-20T20:22:41.245Z,6.62
2018-09-20T20:25:10.043Z,6.80
2018-09-20T20:27:38.784Z,6.20
2018-09-20T20:30:07.630Z,6.22
2018-09-20T20:32:36.473Z,6.03
2018-09-20T20:35:05.476Z,6.05
2018-09-20T20:37:34.002Z,6.15
2018-09-20T20:40:02.498Z,6.67
2018-09-20T20:42:31.013Z,6.05
2018-09-20T20:44:59.549Z,6.47
2018-09-20T20:47:28.052Z,7.80
2018-09-20T20:49:56.575Z,7.20
2018-09-20T20:52:25.130Z,7.28
2018-09-20T20:54:53.632Z,7.35
2018-09-20T20:57:22.239Z,7.28
2018-09-20T20:59:50.726Z,8.58
2018-09-20T21:02:19.259Z,8.25
2018-09-20T21:04:47.766Z,7.75
2018-09-20T21:07:16.310Z,7.28
2018-09-20T21:09:44.794Z,7.28
2018-09-20T21:12:13.318Z,6.97
2018-09-20T21:14:41.909Z,6.90
2018-09-20T21:17:10.400Z,6.70
2018-09-20T21:19:38.862Z,6.55
2018-09-20T21:22:07.546Z,6.28
2018-09-20T21:24:36.039Z,6.85
2018-09-20T21:27:04.549Z,6.40
2018-09-20T21:29:33.038Z,7.12
2018-09-20T21:32:01.650Z,6.78
2018-09-20T21:34:30.166Z,6.65
2018-09-20T21:36:58.794Z,6.92
2018-09-20T21:39:27.337Z,6.80
2018-09-20T21:41:55.859Z,6.35
2018-09-20T21:44:24.365Z,6.85
2018-09-20T21:46:52.882Z,6.37
2018-09-20T21:49:21.394Z,6.55
2018-09-20T21:51:49.894Z,7.12
2018-09-20T21:54:18.437Z,6.60
2018-09-20T21:56:46.966Z,6.80
